Watertown Municipal, SD

5:11 AM CDT on October 23, 2014 (GMT -0500)
derby downs | Change Station
CLOSE
Current Station
Personal Weather Station
Location: Watertown, SD
Elevation: 1810 ft
Nearby Weather Stations

Elev 1810 ft 44.91 °N, 97.16 °W | Updated 7 minutes ago

Scattered Clouds
Scattered Clouds
40.7 °F
Feels Like 38 °F
N
4.0
Wind Variable Wind from SSE

Today
High -- | Low -- °F
--% Chance of Precip.
Yesterday
High -- | Low -- °F
Precip. -- in
7:54 AM 6:30 PM
Waning Crescent, 0% visible
Pressure 29.96 in
Visibility 2.5 miles
Clouds Scattered Clouds 100 ft
Windchill 38 °F
Dew Point 40 °F
Humidity 97%
Rainfall 0.00 in
Snow Depth Not available.
UV 0 out of 12
Pollen 1.70 out of 12
Air Quality Not available.
Flu Activity Sporadic
SPECI KATY 231004Z AUTO 15005KT 2 1/2SM BR SCT001 04/04 A2996 RMK AO2 T00440039

More Conditions Fewer Conditions

Pressure 29.96 in
Visibility 2.5 miles
Clouds Scattered Clouds 100 ft
Windchill 38 °F
Dew Point 40 °F
Humidity 97%
Rainfall 0.00 in
Snow Depth Not available.
UV 0 out of 12
Pollen 1.70 out of 12
Air Quality Not available.
Flu Activity Sporadic
SPECI KATY 231004Z AUTO 15005KT 2 1/2SM BR SCT001 04/04 A2996 RMK AO2 T00440039

More Conditions Fewer Conditions

10-Day Weather Forecast

Almanac

Astronomy

Oct. 23, 2014 Rise Set
Actual Time 7:54 AM CDT 6:30 PM CDT
Civil Twilight 7:24 AM CDT 7:00 PM CDT
Nautical Twilight 6:50 AM CDT 7:34 PM CDT
Astronomical Twilight 6:16 AM CDT 8:08 PM CDT
Moon 7:34 AM CDT 6:32 PM CDT
Length of Visible Light 11h 35m
Length of Day
10h 35m
Tomorrow will be 2m 56s shorter.
Waning Crescent, 0% of the Moon is Illuminated
Today
Waning Crescent
Oct 23
New
Oct 30
First Quarter
Nov 6
Full
Nov 14
Last Quarter

Today's Extremes

State Highs State Lows

Community

WunderPhotos

Upload Photos

1,764,202 photos uploaded!

Nearby

Snow Depth

Station Depth Elevation
North Rapid Creek 1 in 6130 ft
Blind Park 1 in 6890 ft

Earthquake Activity

City Distance Mag. Time & Date
No recent earthquake activity has been reported nearby.
Minimum magnitude displayed is 2.5.

Coastal Water Temperatures

Place Temperature
No Stations Reporting

Nearby Weather Stations